sensor_id;sensor_type;location;lat;lon;timestamp;P1;durP1;ratioP1;P2;durP2;ratioP2
20441;SDS011;10380;52.102;20.614;2023-07-31T00:00:16;3.03;;;1.80;;
20441;SDS011;10380;52.102;20.614;2023-07-31T00:02:43;3.90;;;2.25;;
20441;SDS011;10380;52.102;20.614;2023-07-31T00:05:10;2.38;;;1.77;;
20441;SDS011;10380;52.102;20.614;2023-07-31T00:07:37;2.45;;;1.80;;
20441;SDS011;10380;52.102;20.614;2023-07-31T00:10:04;5.07;;;2.10;;
20441;SDS011;10380;52.102;20.614;2023-07-31T00:12:31;5.70;;;1.92;;
20441;SDS011;10380;52.102;20.614;2023-07-31T00:14:59;3.00;;;1.88;;
20441;SDS011;10380;52.102;20.614;2023-07-31T00:17:26;2.90;;;1.80;;
20441;SDS011;10380;52.102;20.614;2023-07-31T00:19:53;3.65;;;2.42;;
20441;SDS011;10380;52.102;20.614;2023-07-31T00:22:20;3.03;;;2.03;;
20441;SDS011;10380;52.102;20.614;2023-07-31T00:24:47;2.03;;;1.75;;
20441;SDS011;10380;52.102;20.614;2023-07-31T00:27:15;2.88;;;2.35;;
20441;SDS011;10380;52.102;20.614;2023-07-31T00:29:42;2.45;;;2.17;;
20441;SDS011;10380;52.102;20.614;2023-07-31T00:32:09;2.05;;;1.67;;
20441;SDS011;10380;52.102;20.614;2023-07-31T00:34:36;2.17;;;1.98;;
20441;SDS011;10380;52.102;20.614;2023-07-31T00:37:04;3.03;;;2.17;;
20441;SDS011;10380;52.102;20.614;2023-07-31T00:39:31;3.72;;;2.10;;
20441;SDS011;10380;52.102;20.614;2023-07-31T00:41:59;2.55;;;2.35;;
20441;SDS011;10380;52.102;20.614;2023-07-31T00:44:26;3.22;;;2.05;;
20441;SDS011;10380;52.102;20.614;2023-07-31T00:46:54;2.30;;;2.10;;
20441;SDS011;10380;52.102;20.614;2023-07-31T00:49:22;3.70;;;2.15;;
20441;SDS011;10380;52.102;20.614;2023-07-31T00:51:49;3.50;;;2.70;;
20441;SDS011;10380;52.102;20.614;2023-07-31T00:54:17;2.55;;;2.08;;
20441;SDS011;10380;52.102;20.614;2023-07-31T00:56:45;3.72;;;2.72;;
20441;SDS011;10380;52.102;20.614;2023-07-31T00:59:15;3.67;;;2.35;;
20441;SDS011;10380;52.102;20.614;2023-07-31T01:01:42;3.47;;;2.28;;
20441;SDS011;10380;52.102;20.614;2023-07-31T01:04:09;4.13;;;2.70;;
20441;SDS011;10380;52.102;20.614;2023-07-31T01:06:37;4.00;;;2.25;;
20441;SDS011;10380;52.102;20.614;2023-07-31T01:11:52;3.55;;;2.50;;
20441;SDS011;10380;52.102;20.614;2023-07-31T01:14:23;6.03;;;2.35;;
20441;SDS011;10380;52.102;20.614;2023-07-31T01:16:50;4.50;;;2.00;;
20441;SDS011;10380;52.102;20.614;2023-07-31T01:19:18;4.93;;;2.40;;
20441;SDS011;10380;52.102;20.614;2023-07-31T01:27:04;3.28;;;2.30;;
20441;SDS011;10380;52.102;20.614;2023-07-31T01:29:43;5.07;;;2.75;;
20441;SDS011;10380;52.102;20.614;2023-07-31T01:32:31;2.67;;;2.13;;
20441;SDS011;10380;52.102;20.614;2023-07-31T01:34:59;3.47;;;2.40;;
20441;SDS011;10380;52.102;20.614;2023-07-31T01:37:29;4.85;;;2.80;;
20441;SDS011;10380;52.102;20.614;2023-07-31T01:39:57;3.70;;;2.35;;
20441;SDS011;10380;52.102;20.614;2023-07-31T01:42:24;2.40;;;2.20;;
20441;SDS011;10380;52.102;20.614;2023-07-31T01:44:51;5.13;;;2.58;;
20441;SDS011;10380;52.102;20.614;2023-07-31T01:47:18;3.22;;;2.40;;
20441;SDS011;10380;52.102;20.614;2023-07-31T01:49:45;2.63;;;2.33;;
20441;SDS011;10380;52.102;20.614;2023-07-31T01:52:12;3.58;;;2.83;;
20441;SDS011;10380;52.102;20.614;2023-07-31T01:54:39;2.97;;;2.42;;
20441;SDS011;10380;52.102;20.614;2023-07-31T01:57:06;3.60;;;2.58;;
20441;SDS011;10380;52.102;20.614;2023-07-31T01:59:34;3.38;;;2.50;;
20441;SDS011;10380;52.102;20.614;2023-07-31T02:02:01;2.67;;;2.38;;
20441;SDS011;10380;52.102;20.614;2023-07-31T02:04:28;6.93;;;2.35;;
20441;SDS011;10380;52.102;20.614;2023-07-31T02:06:55;6.60;;;2.38;;
20441;SDS011;10380;52.102;20.614;2023-07-31T02:09:22;5.10;;;3.15;;
20441;SDS011;10380;52.102;20.614;2023-07-31T02:11:49;3.67;;;2.78;;
20441;SDS011;10380;52.102;20.614;2023-07-31T02:14:16;3.63;;;2.58;;
20441;SDS011;10380;52.102;20.614;2023-07-31T02:16:43;5.32;;;2.55;;
20441;SDS011;10380;52.102;20.614;2023-07-31T02:19:10;4.22;;;2.42;;
20441;SDS011;10380;52.102;20.614;2023-07-31T02:21:38;3.17;;;2.88;;
20441;SDS011;10380;52.102;20.614;2023-07-31T02:24:04;3.47;;;2.60;;
20441;SDS011;10380;52.102;20.614;2023-07-31T02:26:31;4.88;;;2.50;;
20441;SDS011;10380;52.102;20.614;2023-07-31T02:28:59;5.38;;;2.58;;
20441;SDS011;10380;52.102;20.614;2023-07-31T02:31:26;2.67;;;2.20;;
20441;SDS011;10380;52.102;20.614;2023-07-31T02:33:53;10.48;;;3.92;;
20441;SDS011;10380;52.102;20.614;2023-07-31T02:36:20;4.75;;;2.70;;
20441;SDS011;10380;52.102;20.614;2023-07-31T02:38:47;5.20;;;2.95;;
20441;SDS011;10380;52.102;20.614;2023-07-31T02:41:14;4.07;;;3.15;;
20441;SDS011;10380;52.102;20.614;2023-07-31T02:43:41;5.57;;;2.55;;
20441;SDS011;10380;52.102;20.614;2023-07-31T02:46:09;2.80;;;2.42;;
20441;SDS011;10380;52.102;20.614;2023-07-31T02:48:36;4.75;;;2.90;;
20441;SDS011;10380;52.102;20.614;2023-07-31T02:51:03;4.78;;;2.85;;
20441;SDS011;10380;52.102;20.614;2023-07-31T02:53:30;5.15;;;3.03;;
20441;SDS011;10380;52.102;20.614;2023-07-31T02:55:57;3.35;;;2.10;;
20441;SDS011;10380;52.102;20.614;2023-07-31T02:58:25;3.90;;;2.38;;
20441;SDS011;10380;52.102;20.614;2023-07-31T03:00:52;3.33;;;2.40;;
20441;SDS011;10380;52.102;20.614;2023-07-31T03:03:19;3.47;;;2.47;;
20441;SDS011;10380;52.102;20.614;2023-07-31T03:05:46;5.35;;;2.75;;
20441;SDS011;10380;52.102;20.614;2023-07-31T03:08:13;3.95;;;2.53;;
20441;SDS011;10380;52.102;20.614;2023-07-31T03:10:40;5.43;;;2.38;;
20441;SDS011;10380;52.102;20.614;2023-07-31T03:13:07;3.25;;;2.08;;
20441;SDS011;10380;52.102;20.614;2023-07-31T03:15:35;2.70;;;2.33;;
20441;SDS011;10380;52.102;20.614;2023-07-31T03:18:02;4.55;;;2.75;;
20441;SDS011;10380;52.102;20.614;2023-07-31T03:20:29;4.03;;;2.40;;
20441;SDS011;10380;52.102;20.614;2023-07-31T03:22:56;6.03;;;2.55;;
20441;SDS011;10380;52.102;20.614;2023-07-31T03:25:23;4.43;;;2.08;;
20441;SDS011;10380;52.102;20.614;2023-07-31T03:27:50;6.32;;;2.58;;
20441;SDS011;10380;52.102;20.614;2023-07-31T03:30:17;4.38;;;2.33;;
20441;SDS011;10380;52.102;20.614;2023-07-31T03:32:44;2.47;;;2.10;;
20441;SDS011;10380;52.102;20.614;2023-07-31T03:35:11;3.33;;;2.67;;
20441;SDS011;10380;52.102;20.614;2023-07-31T03:37:39;3.42;;;2.72;;
20441;SDS011;10380;52.102;20.614;2023-07-31T03:40:06;3.90;;;2.63;;
20441;SDS011;10380;52.102;20.614;2023-07-31T03:42:33;5.90;;;2.70;;
20441;SDS011;10380;52.102;20.614;2023-07-31T03:45:01;4.93;;;2.50;;
20441;SDS011;10380;52.102;20.614;2023-07-31T03:47:28;3.95;;;2.38;;
20441;SDS011;10380;52.102;20.614;2023-07-31T03:49:55;6.60;;;3.05;;
20441;SDS011;10380;52.102;20.614;2023-07-31T03:52:22;7.85;;;2.20;;
20441;SDS011;10380;52.102;20.614;2023-07-31T03:54:49;5.40;;;2.53;;
20441;SDS011;10380;52.102;20.614;2023-07-31T03:57:17;3.38;;;2.60;;
20441;SDS011;10380;52.102;20.614;2023-07-31T03:59:44;5.97;;;2.13;;
20441;SDS011;10380;52.102;20.614;2023-07-31T04:02:11;3.78;;;2.15;;
20441;SDS011;10380;52.102;20.614;2023-07-31T04:04:40;4.85;;;2.05;;
20441;SDS011;10380;52.102;20.614;2023-07-31T04:07:07;4.68;;;2.40;;
20441;SDS011;10380;52.102;20.614;2023-07-31T04:09:34;2.90;;;2.45;;
20441;SDS011;10380;52.102;20.614;2023-07-31T04:12:02;3.63;;;2.30;;
20441;SDS011;10380;52.102;20.614;2023-07-31T04:14:29;3.95;;;2.60;;
20441;SDS011;10380;52.102;20.614;2023-07-31T04:16:56;2.75;;;2.17;;
20441;SDS011;10380;52.102;20.614;2023-07-31T04:19:23;3.88;;;2.88;;
20441;SDS011;10380;52.102;20.614;2023-07-31T04:21:50;3.30;;;2.53;;
20441;SDS011;10380;52.102;20.614;2023-07-31T04:24:17;3.38;;;2.55;;
20441;SDS011;10380;52.102;20.614;2023-07-31T04:26:50;5.43;;;2.30;;
20441;SDS011;10380;52.102;20.614;2023-07-31T04:29:18;4.63;;;2.35;;
20441;SDS011;10380;52.102;20.614;2023-07-31T04:31:47;6.15;;;2.05;;
20441;SDS011;10380;52.102;20.614;2023-07-31T04:34:15;7.60;;;2.60;;
20441;SDS011;10380;52.102;20.614;2023-07-31T04:36:41;3.90;;;2.40;;
20441;SDS011;10380;52.102;20.614;2023-07-31T04:39:08;2.55;;;1.92;;
20441;SDS011;10380;52.102;20.614;2023-07-31T04:41:35;3.15;;;2.30;;
20441;SDS011;10380;52.102;20.614;2023-07-31T04:44:03;6.60;;;2.45;;
20441;SDS011;10380;52.102;20.614;2023-07-31T04:46:30;4.80;;;2.60;;
20441;SDS011;10380;52.102;20.614;2023-07-31T04:48:57;3.75;;;2.70;;
20441;SDS011;10380;52.102;20.614;2023-07-31T04:51:24;4.03;;;2.58;;
20441;SDS011;10380;52.102;20.614;2023-07-31T04:53:51;6.07;;;2.83;;
20441;SDS011;10380;52.102;20.614;2023-07-31T04:56:18;6.75;;;3.03;;
20441;SDS011;10380;52.102;20.614;2023-07-31T04:58:45;5.13;;;2.58;;
20441;SDS011;10380;52.102;20.614;2023-07-31T05:01:13;4.78;;;2.67;;
20441;SDS011;10380;52.102;20.614;2023-07-31T05:03:40;4.50;;;2.60;;
20441;SDS011;10380;52.102;20.614;2023-07-31T05:06:07;5.75;;;2.88;;
20441;SDS011;10380;52.102;20.614;2023-07-31T05:08:35;3.67;;;2.67;;
20441;SDS011;10380;52.102;20.614;2023-07-31T05:11:02;7.28;;;2.58;;
20441;SDS011;10380;52.102;20.614;2023-07-31T05:13:29;9.40;;;2.42;;
20441;SDS011;10380;52.102;20.614;2023-07-31T05:15:56;3.00;;;2.42;;
20441;SDS011;10380;52.102;20.614;2023-07-31T05:18:27;6.40;;;2.42;;
20441;SDS011;10380;52.102;20.614;2023-07-31T05:20:54;4.05;;;2.22;;
20441;SDS011;10380;52.102;20.614;2023-07-31T05:23:21;6.82;;;2.65;;
20441;SDS011;10380;52.102;20.614;2023-07-31T05:25:48;3.47;;;2.53;;
20441;SDS011;10380;52.102;20.614;2023-07-31T05:28:16;3.55;;;2.58;;
20441;SDS011;10380;52.102;20.614;2023-07-31T05:30:43;3.03;;;2.53;;
20441;SDS011;10380;52.102;20.614;2023-07-31T05:33:10;4.60;;;2.13;;
20441;SDS011;10380;52.102;20.614;2023-07-31T05:35:40;5.68;;;4.25;;
20441;SDS011;10380;52.102;20.614;2023-07-31T05:38:07;5.50;;;2.72;;
20441;SDS011;10380;52.102;20.614;2023-07-31T05:40:34;5.90;;;2.47;;
20441;SDS011;10380;52.102;20.614;2023-07-31T05:43:02;8.35;;;3.38;;
20441;SDS011;10380;52.102;20.614;2023-07-31T05:45:29;5.88;;;2.58;;
20441;SDS011;10380;52.102;20.614;2023-07-31T05:47:56;2.95;;;2.25;;
20441;SDS011;10380;52.102;20.614;2023-07-31T05:50:23;3.53;;;2.25;;
20441;SDS011;10380;52.102;20.614;2023-07-31T05:52:50;3.40;;;2.55;;
20441;SDS011;10380;52.102;20.614;2023-07-31T05:55:18;4.55;;;2.72;;
20441;SDS011;10380;52.102;20.614;2023-07-31T05:57:45;5.07;;;2.58;;
20441;SDS011;10380;52.102;20.614;2023-07-31T06:00:12;3.97;;;2.20;;
20441;SDS011;10380;52.102;20.614;2023-07-31T06:02:40;5.43;;;2.47;;
20441;SDS011;10380;52.102;20.614;2023-07-31T06:05:07;6.13;;;3.00;;
20441;SDS011;10380;52.102;20.614;2023-07-31T06:07:35;5.25;;;2.78;;
20441;SDS011;10380;52.102;20.614;2023-07-31T06:10:02;5.03;;;2.78;;
20441;SDS011;10380;52.102;20.614;2023-07-31T06:12:32;6.70;;;3.00;;
20441;SDS011;10380;52.102;20.614;2023-07-31T06:14:59;4.47;;;2.90;;
20441;SDS011;10380;52.102;20.614;2023-07-31T06:17:27;5.35;;;2.85;;
20441;SDS011;10380;52.102;20.614;2023-07-31T06:19:54;17.98;;;2.70;;
20441;SDS011;10380;52.102;20.614;2023-07-31T06:22:21;3.83;;;2.25;;
20441;SDS011;10380;52.102;20.614;2023-07-31T06:24:48;7.07;;;2.70;;
20441;SDS011;10380;52.102;20.614;2023-07-31T06:27:15;5.07;;;2.28;;
20441;SDS011;10380;52.102;20.614;2023-07-31T06:29:43;2.80;;;2.13;;
20441;SDS011;10380;52.102;20.614;2023-07-31T06:32:10;3.63;;;2.38;;
20441;SDS011;10380;52.102;20.614;2023-07-31T06:34:37;4.30;;;2.25;;
20441;SDS011;10380;52.102;20.614;2023-07-31T06:37:04;3.70;;;1.88;;
20441;SDS011;10380;52.102;20.614;2023-07-31T06:39:31;4.05;;;2.38;;
20441;SDS011;10380;52.102;20.614;2023-07-31T06:41:58;6.80;;;2.80;;
20441;SDS011;10380;52.102;20.614;2023-07-31T06:44:25;6.18;;;2.17;;
20441;SDS011;10380;52.102;20.614;2023-07-31T06:46:53;4.05;;;2.72;;
20441;SDS011;10380;52.102;20.614;2023-07-31T06:49:20;5.43;;;2.97;;
20441;SDS011;10380;52.102;20.614;2023-07-31T06:51:47;5.65;;;2.35;;
20441;SDS011;10380;52.102;20.614;2023-07-31T06:54:14;5.10;;;2.10;;
20441;SDS011;10380;52.102;20.614;2023-07-31T06:56:41;4.90;;;2.10;;
20441;SDS011;10380;52.102;20.614;2023-07-31T06:59:08;4.22;;;1.92;;
20441;SDS011;10380;52.102;20.614;2023-07-31T07:01:35;4.30;;;2.67;;
20441;SDS011;10380;52.102;20.614;2023-07-31T07:04:03;5.15;;;2.33;;
20441;SDS011;10380;52.102;20.614;2023-07-31T07:06:30;4.65;;;2.58;;
20441;SDS011;10380;52.102;20.614;2023-07-31T07:08:57;4.88;;;2.10;;
20441;SDS011;10380;52.102;20.614;2023-07-31T07:11:24;5.38;;;2.50;;
20441;SDS011;10380;52.102;20.614;2023-07-31T07:13:52;2.83;;;1.83;;
20441;SDS011;10380;52.102;20.614;2023-07-31T07:16:19;4.63;;;2.70;;
20441;SDS011;10380;52.102;20.614;2023-07-31T07:18:46;4.55;;;2.25;;
20441;SDS011;10380;52.102;20.614;2023-07-31T07:21:29;5.35;;;2.25;;
20441;SDS011;10380;52.102;20.614;2023-07-31T07:23:56;6.05;;;2.20;;
20441;SDS011;10380;52.102;20.614;2023-07-31T07:26:23;3.85;;;2.13;;
20441;SDS011;10380;52.102;20.614;2023-07-31T07:28:50;3.63;;;1.98;;
20441;SDS011;10380;52.102;20.614;2023-07-31T07:31:17;4.90;;;1.98;;
20441;SDS011;10380;52.102;20.614;2023-07-31T07:33:44;4.13;;;2.30;;
20441;SDS011;10380;52.102;20.614;2023-07-31T07:36:12;4.32;;;2.75;;
20441;SDS011;10380;52.102;20.614;2023-07-31T07:38:39;6.78;;;2.78;;
20441;SDS011;10380;52.102;20.614;2023-07-31T07:41:08;6.80;;;2.83;;
20441;SDS011;10380;52.102;20.614;2023-07-31T07:43:34;4.85;;;2.40;;
20441;SDS011;10380;52.102;20.614;2023-07-31T07:46:01;5.05;;;2.67;;
20441;SDS011;10380;52.102;20.614;2023-07-31T07:48:29;6.47;;;3.15;;
20441;SDS011;10380;52.102;20.614;2023-07-31T07:50:56;6.10;;;2.58;;
20441;SDS011;10380;52.102;20.614;2023-07-31T07:53:23;6.10;;;2.53;;
20441;SDS011;10380;52.102;20.614;2023-07-31T07:55:50;7.70;;;2.72;;
20441;SDS011;10380;52.102;20.614;2023-07-31T07:58:17;5.43;;;2.97;;
20441;SDS011;10380;52.102;20.614;2023-07-31T08:00:50;4.68;;;2.47;;
20441;SDS011;10380;52.102;20.614;2023-07-31T08:03:18;6.65;;;2.80;;
20441;SDS011;10380;52.102;20.614;2023-07-31T08:05:46;5.75;;;2.72;;
20441;SDS011;10380;52.102;20.614;2023-07-31T08:08:16;4.57;;;2.20;;
20441;SDS011;10380;52.102;20.614;2023-07-31T08:10:43;3.85;;;2.10;;
20441;SDS011;10380;52.102;20.614;2023-07-31T08:13:11;4.43;;;1.83;;
20441;SDS011;10380;52.102;20.614;2023-07-31T08:15:40;6.80;;;1.80;;
20441;SDS011;10380;52.102;20.614;2023-07-31T08:18:08;5.07;;;2.60;;
20441;SDS011;10380;52.102;20.614;2023-07-31T08:20:36;3.92;;;2.60;;
20441;SDS011;10380;52.102;20.614;2023-07-31T08:23:04;2.72;;;1.70;;
20441;SDS011;10380;52.102;20.614;2023-07-31T08:25:31;4.22;;;1.90;;
20441;SDS011;10380;52.102;20.614;2023-07-31T08:28:04;5.30;;;2.00;;
20441;SDS011;10380;52.102;20.614;2023-07-31T08:30:32;3.35;;;1.60;;
20441;SDS011;10380;52.102;20.614;2023-07-31T08:33:00;3.35;;;2.10;;
20441;SDS011;10380;52.102;20.614;2023-07-31T08:35:27;3.92;;;1.80;;
20441;SDS011;10380;52.102;20.614;2023-07-31T08:37:54;4.22;;;1.98;;
20441;SDS011;10380;52.102;20.614;2023-07-31T08:40:21;7.20;;;2.38;;
20441;SDS011;10380;52.102;20.614;2023-07-31T08:42:49;5.20;;;1.50;;
20441;SDS011;10380;52.102;20.614;2023-07-31T08:45:18;3.00;;;1.70;;
20441;SDS011;10380;52.102;20.614;2023-07-31T08:47:47;2.13;;;1.65;;
20441;SDS011;10380;52.102;20.614;2023-07-31T08:50:17;3.25;;;1.77;;
20441;SDS011;10380;52.102;20.614;2023-07-31T08:52:45;5.15;;;1.88;;
20441;SDS011;10380;52.102;20.614;2023-07-31T08:55:13;5.93;;;1.90;;
20441;SDS011;10380;52.102;20.614;2023-07-31T08:57:41;3.67;;;1.98;;
20441;SDS011;10380;52.102;20.614;2023-07-31T09:00:10;3.20;;;1.80;;
20441;SDS011;10380;52.102;20.614;2023-07-31T09:02:39;2.75;;;1.75;;
20441;SDS011;10380;52.102;20.614;2023-07-31T09:05:12;3.85;;;1.90;;
20441;SDS011;10380;52.102;20.614;2023-07-31T09:07:39;2.70;;;1.52;;
20441;SDS011;10380;52.102;20.614;2023-07-31T09:10:08;2.85;;;1.88;;
20441;SDS011;10380;52.102;20.614;2023-07-31T09:12:36;3.55;;;1.70;;
20441;SDS011;10380;52.102;20.614;2023-07-31T09:15:04;4.35;;;1.63;;
20441;SDS011;10380;52.102;20.614;2023-07-31T09:17:32;4.55;;;1.63;;
20441;SDS011;10380;52.102;20.614;2023-07-31T09:20:18;3.55;;;1.75;;
20441;SDS011;10380;52.102;20.614;2023-07-31T09:22:47;5.13;;;2.13;;
20441;SDS011;10380;52.102;20.614;2023-07-31T09:25:22;2.75;;;1.60;;
20441;SDS011;10380;52.102;20.614;2023-07-31T09:28:00;3.03;;;1.85;;
20441;SDS011;10380;52.102;20.614;2023-07-31T09:30:29;5.20;;;1.67;;
20441;SDS011;10380;52.102;20.614;2023-07-31T09:33:00;6.45;;;1.77;;
20441;SDS011;10380;52.102;20.614;2023-07-31T09:35:29;4.32;;;1.60;;
20441;SDS011;10380;52.102;20.614;2023-07-31T09:37:59;4.13;;;1.33;;
20441;SDS011;10380;52.102;20.614;2023-07-31T09:40:28;4.40;;;2.05;;
20441;SDS011;10380;52.102;20.614;2023-07-31T09:43:00;3.15;;;1.38;;
20441;SDS011;10380;52.102;20.614;2023-07-31T09:45:29;2.55;;;1.45;;
20441;SDS011;10380;52.102;20.614;2023-07-31T09:48:08;4.43;;;1.27;;
20441;SDS011;10380;52.102;20.614;2023-07-31T09:50:40;3.53;;;1.75;;
20441;SDS011;10380;52.102;20.614;2023-07-31T09:53:09;3.65;;;1.67;;
20441;SDS011;10380;52.102;20.614;2023-07-31T09:55:37;2.70;;;1.55;;
20441;SDS011;10380;52.102;20.614;2023-07-31T09:58:08;2.60;;;1.38;;
20441;SDS011;10380;52.102;20.614;2023-07-31T10:00:37;3.85;;;1.40;;
20441;SDS011;10380;52.102;20.614;2023-07-31T10:03:05;2.17;;;1.35;;
20441;SDS011;10380;52.102;20.614;2023-07-31T10:05:35;2.08;;;1.05;;
20441;SDS011;10380;52.102;20.614;2023-07-31T10:08:05;2.20;;;1.30;;
20441;SDS011;10380;52.102;20.614;2023-07-31T10:10:35;3.17;;;1.48;;
20441;SDS011;10380;52.102;20.614;2023-07-31T10:13:04;5.18;;;1.60;;
20441;SDS011;10380;52.102;20.614;2023-07-31T10:15:32;3.33;;;1.30;;
20441;SDS011;10380;52.102;20.614;2023-07-31T10:17:59;5.35;;;1.30;;
20441;SDS011;10380;52.102;20.614;2023-07-31T10:20:27;1.98;;;1.33;;
20441;SDS011;10380;52.102;20.614;2023-07-31T10:22:55;3.65;;;1.83;;
20441;SDS011;10380;52.102;20.614;2023-07-31T10:25:23;3.50;;;1.67;;
20441;SDS011;10380;52.102;20.614;2023-07-31T10:27:50;8.75;;;1.40;;
20441;SDS011;10380;52.102;20.614;2023-07-31T10:30:22;4.28;;;1.40;;
20441;SDS011;10380;52.102;20.614;2023-07-31T10:32:52;2.85;;;1.85;;
20441;SDS011;10380;52.102;20.614;2023-07-31T10:35:20;3.03;;;1.48;;
20441;SDS011;10380;52.102;20.614;2023-07-31T10:37:51;2.72;;;1.30;;
20441;SDS011;10380;52.102;20.614;2023-07-31T10:40:19;2.15;;;1.42;;
20441;SDS011;10380;52.102;20.614;2023-07-31T10:42:52;2.92;;;1.80;;
20441;SDS011;10380;52.102;20.614;2023-07-31T10:45:24;3.85;;;1.33;;
20441;SDS011;10380;52.102;20.614;2023-07-31T10:50:59;3.58;;;1.55;;
20441;SDS011;10380;52.102;20.614;2023-07-31T10:53:29;3.75;;;1.45;;
20441;SDS011;10380;52.102;20.614;2023-07-31T10:56:07;2.53;;;1.23;;
20441;SDS011;10380;52.102;20.614;2023-07-31T10:58:36;3.50;;;1.30;;
20441;SDS011;10380;52.102;20.614;2023-07-31T11:01:04;4.93;;;1.42;;
20441;SDS011;10380;52.102;20.614;2023-07-31T11:06:16;3.30;;;1.58;;
20441;SDS011;10380;52.102;20.614;2023-07-31T11:08:46;4.57;;;1.48;;
20441;SDS011;10380;52.102;20.614;2023-07-31T11:11:15;2.47;;;1.17;;
20441;SDS011;10380;52.102;20.614;2023-07-31T11:13:45;4.75;;;1.23;;
20441;SDS011;10380;52.102;20.614;2023-07-31T11:16:17;2.83;;;1.23;;
20441;SDS011;10380;52.102;20.614;2023-07-31T11:18:48;2.78;;;1.33;;
20441;SDS011;10380;52.102;20.614;2023-07-31T11:21:18;4.60;;;1.58;;
20441;SDS011;10380;52.102;20.614;2023-07-31T11:23:47;2.80;;;1.30;;
20441;SDS011;10380;52.102;20.614;2023-07-31T11:26:16;5.03;;;1.63;;
20441;SDS011;10380;52.102;20.614;2023-07-31T11:28:46;2.90;;;1.30;;
20441;SDS011;10380;52.102;20.614;2023-07-31T11:31:14;3.00;;;1.25;;
20441;SDS011;10380;52.102;20.614;2023-07-31T11:33:41;2.95;;;1.33;;
20441;SDS011;10380;52.102;20.614;2023-07-31T11:36:18;4.00;;;1.10;;
20441;SDS011;10380;52.102;20.614;2023-07-31T11:38:47;3.38;;;1.25;;
20441;SDS011;10380;52.102;20.614;2023-07-31T11:41:15;4.25;;;1.55;;
20441;SDS011;10380;52.102;20.614;2023-07-31T11:43:48;8.68;;;1.60;;
20441;SDS011;10380;52.102;20.614;2023-07-31T11:46:15;3.28;;;1.17;;
20441;SDS011;10380;52.102;20.614;2023-07-31T11:48:43;2.35;;;1.00;;
20441;SDS011;10380;52.102;20.614;2023-07-31T11:51:10;2.67;;;1.20;;
20441;SDS011;10380;52.102;20.614;2023-07-31T11:53:44;4.82;;;1.40;;
20441;SDS011;10380;52.102;20.614;2023-07-31T11:56:19;2.60;;;1.00;;
20441;SDS011;10380;52.102;20.614;2023-07-31T11:58:48;4.63;;;1.13;;
20441;SDS011;10380;52.102;20.614;2023-07-31T12:01:21;4.10;;;0.98;;
20441;SDS011;10380;52.102;20.614;2023-07-31T12:03:49;4.50;;;1.30;;
20441;SDS011;10380;52.102;20.614;2023-07-31T12:06:17;5.32;;;1.20;;
20441;SDS011;10380;52.102;20.614;2023-07-31T12:08:47;4.38;;;1.45;;
20441;SDS011;10380;52.102;20.614;2023-07-31T12:11:15;2.92;;;1.73;;
20441;SDS011;10380;52.102;20.614;2023-07-31T12:13:44;3.35;;;1.23;;
20441;SDS011;10380;52.102;20.614;2023-07-31T12:16:12;4.75;;;1.50;;
20441;SDS011;10380;52.102;20.614;2023-07-31T12:18:39;3.35;;;0.95;;
20441;SDS011;10380;52.102;20.614;2023-07-31T12:21:08;2.58;;;1.17;;
20441;SDS011;10380;52.102;20.614;2023-07-31T12:23:38;4.03;;;1.15;;
20441;SDS011;10380;52.102;20.614;2023-07-31T12:26:06;1.98;;;1.27;;
20441;SDS011;10380;52.102;20.614;2023-07-31T12:28:45;3.35;;;1.33;;
20441;SDS011;10380;52.102;20.614;2023-07-31T12:31:17;1.50;;;0.90;;
20441;SDS011;10380;52.102;20.614;2023-07-31T12:33:47;2.92;;;1.10;;
20441;SDS011;10380;52.102;20.614;2023-07-31T12:36:17;5.57;;;1.30;;
20441;SDS011;10380;52.102;20.614;2023-07-31T12:38:47;3.70;;;1.10;;
20441;SDS011;10380;52.102;20.614;2023-07-31T12:41:16;3.58;;;1.15;;
20441;SDS011;10380;52.102;20.614;2023-07-31T12:43:44;4.30;;;1.45;;
20441;SDS011;10380;52.102;20.614;2023-07-31T12:46:12;2.92;;;0.93;;
20441;SDS011;10380;52.102;20.614;2023-07-31T12:48:40;4.53;;;1.25;;
20441;SDS011;10380;52.102;20.614;2023-07-31T12:51:07;4.60;;;1.30;;
20441;SDS011;10380;52.102;20.614;2023-07-31T12:53:34;4.63;;;1.17;;
20441;SDS011;10380;52.102;20.614;2023-07-31T12:56:01;3.53;;;1.15;;
20441;SDS011;10380;52.102;20.614;2023-07-31T12:58:29;2.83;;;1.08;;
20441;SDS011;10380;52.102;20.614;2023-07-31T13:00:56;3.58;;;1.27;;
20441;SDS011;10380;52.102;20.614;2023-07-31T13:03:23;4.75;;;1.50;;
20441;SDS011;10380;52.102;20.614;2023-07-31T13:05:51;3.30;;;0.93;;
20441;SDS011;10380;52.102;20.614;2023-07-31T13:08:19;8.07;;;1.70;;
20441;SDS011;10380;52.102;20.614;2023-07-31T13:10:47;2.92;;;1.13;;
20441;SDS011;10380;52.102;20.614;2023-07-31T13:13:14;6.78;;;1.63;;
20441;SDS011;10380;52.102;20.614;2023-07-31T13:15:41;3.67;;;1.75;;
20441;SDS011;10380;52.102;20.614;2023-07-31T13:18:10;4.53;;;1.50;;
20441;SDS011;10380;52.102;20.614;2023-07-31T13:20:37;5.03;;;1.70;;
20441;SDS011;10380;52.102;20.614;2023-07-31T13:23:04;6.88;;;1.38;;
20441;SDS011;10380;52.102;20.614;2023-07-31T13:25:32;5.18;;;1.40;;
20441;SDS011;10380;52.102;20.614;2023-07-31T13:27:59;5.50;;;1.58;;
20441;SDS011;10380;52.102;20.614;2023-07-31T13:30:29;3.28;;;1.50;;
20441;SDS011;10380;52.102;20.614;2023-07-31T13:32:56;6.22;;;1.38;;
20441;SDS011;10380;52.102;20.614;2023-07-31T13:35:23;5.43;;;1.10;;
20441;SDS011;10380;52.102;20.614;2023-07-31T13:37:50;4.13;;;1.30;;
20441;SDS011;10380;52.102;20.614;2023-07-31T13:40:17;5.30;;;1.52;;
20441;SDS011;10380;52.102;20.614;2023-07-31T13:42:44;4.38;;;1.50;;
20441;SDS011;10380;52.102;20.614;2023-07-31T13:45:14;4.07;;;1.42;;
20441;SDS011;10380;52.102;20.614;2023-07-31T13:47:41;3.75;;;1.27;;
20441;SDS011;10380;52.102;20.614;2023-07-31T13:50:08;5.78;;;1.60;;
20441;SDS011;10380;52.102;20.614;2023-07-31T13:52:36;3.53;;;1.42;;
20441;SDS011;10380;52.102;20.614;2023-07-31T13:55:03;3.42;;;1.35;;
20441;SDS011;10380;52.102;20.614;2023-07-31T13:57:30;4.35;;;1.55;;
20441;SDS011;10380;52.102;20.614;2023-07-31T13:59:57;7.97;;;1.50;;
20441;SDS011;10380;52.102;20.614;2023-07-31T14:02:24;5.28;;;1.38;;
20441;SDS011;10380;52.102;20.614;2023-07-31T14:04:51;8.45;;;2.25;;
20441;SDS011;10380;52.102;20.614;2023-07-31T14:07:18;2.47;;;1.40;;
20441;SDS011;10380;52.102;20.614;2023-07-31T14:09:46;5.22;;;1.50;;
20441;SDS011;10380;52.102;20.614;2023-07-31T14:12:12;5.75;;;2.25;;
20441;SDS011;10380;52.102;20.614;2023-07-31T14:14:57;2.03;;;1.15;;
20441;SDS011;10380;52.102;20.614;2023-07-31T14:17:24;2.53;;;1.30;;
20441;SDS011;10380;52.102;20.614;2023-07-31T14:19:51;4.60;;;1.35;;
20441;SDS011;10380;52.102;20.614;2023-07-31T14:22:29;2.83;;;1.48;;
20441;SDS011;10380;52.102;20.614;2023-07-31T14:24:56;3.97;;;1.42;;
20441;SDS011;10380;52.102;20.614;2023-07-31T14:27:24;3.45;;;1.33;;
20441;SDS011;10380;52.102;20.614;2023-07-31T14:29:51;2.88;;;1.58;;
20441;SDS011;10380;52.102;20.614;2023-07-31T14:32:18;3.58;;;1.35;;
20441;SDS011;10380;52.102;20.614;2023-07-31T14:34:45;3.85;;;1.42;;
20441;SDS011;10380;52.102;20.614;2023-07-31T14:37:12;4.05;;;1.48;;
20441;SDS011;10380;52.102;20.614;2023-07-31T14:39:39;4.90;;;1.60;;
20441;SDS011;10380;52.102;20.614;2023-07-31T14:42:06;5.28;;;1.50;;
20441;SDS011;10380;52.102;20.614;2023-07-31T14:44:33;5.15;;;1.45;;
20441;SDS011;10380;52.102;20.614;2023-07-31T14:47:01;2.72;;;1.30;;
20441;SDS011;10380;52.102;20.614;2023-07-31T14:49:28;4.03;;;1.23;;
20441;SDS011;10380;52.102;20.614;2023-07-31T14:51:55;4.20;;;1.40;;